Gwinner, ND

9:59 PM CDT on August 22, 2017 (GMT -0500)
Gwinner-melroe

Weather History for KGWR - March, 2013

Change the Weather History Date:

Thursday, March 7, 2013

  Actual Average (KP67) Record (KP67)
Temperature  
Mean Temperature 22 °F -  
Max Temperature 28 °F 22 °F 27 °F (1998)
Min Temperature 17 °F 5 °F 0 °F (1997)
Degree Days  
Heating Degree Days 42    
Moisture  
Dew Point 21 °F    
Average Humidity 95    
Maximum Humidity 100    
Minimum Humidity 86    
Precipitation  
Precipitation 0.00 in - - ()
Sea Level Pressure  
Sea Level Pressure 30.18 in    
Wind  
Wind Speed 18 mph (SE)    
Max Wind Speed 26 mph    
Max Gust Speed 30 mph    
Visibility 5 miles    
Events      
Averages and records for this station are not official NWS values.
T = Trace of Precipitation, MM = Missing Value Source: NWS Daily Summary

Daily Weather History Graph

Daily Weather History Graph

Search for Another Location

Airport or City:

Trip Planner

Search our weather history database for the weather conditions in past years. The results will help you decide how hot, cold, wet, or windy it might be!

Date:

Astronomy

Mar. 07, 2013 Rise Set
Actual Time 6:57 AM CST 6:25 PM CST
Civil Twilight 6:28 AM CST 6:55 PM CST
Nautical Twilight 5:53 AM CST 7:30 PM CST
Astronomical Twilight 5:18 AM CST 8:05 PM CST
Moon 4:11 AM CST (3/7) 2:03 PM CST (3/7)
Length of Visible Light 12h 27m
Length of Day
11h 27m
Waning Crescent, 20% of the Moon is Illuminated
Mar 7
Waning Crescent
Mar 11
New
Mar 19
First Quarter
Mar 27
Full
Apr 2
Last Quarter

Hourly Weather History & Observations

Time (CST) Temp. Windchill Dew Point Humidity Pressure Visibility Wind Dir Wind Speed Gust Speed Precip Events Conditions
12:15 AM 17.6 °F 2.7 °F 17.6 °F 100% 30.26 in 10.0 mi SE 16.1 mph - 0.00 in   Overcast
12:35 AM 19.4 °F 5.5 °F 17.6 °F 93% 30.26 in 9.0 mi SE 15.0 mph - 0.00 in   Unknown
12:55 AM 19.4 °F 6.0 °F 17.6 °F 93% 30.25 in 8.0 mi SE 13.8 mph - 0.00 in   Unknown
1:15 AM 17.6 °F 3.2 °F 17.6 °F 100% 30.25 in 10.0 mi ESE 15.0 mph - 0.00 in   Overcast
1:35 AM 17.6 °F 2.2 °F 17.6 °F 100% 30.24 in 9.0 mi ESE 17.3 mph - 0.00 in   Unknown
1:55 AM 19.4 °F 5.5 °F 17.6 °F 93% 30.25 in 5.0 mi SE 15.0 mph - 0.00 in   Unknown
2:15 AM 19.4 °F 4.5 °F 17.6 °F 93% 30.24 in 5.0 mi SE 17.3 mph - 0.00 in   Overcast
2:35 AM 19.4 °F 4.5 °F 17.6 °F 93% 30.23 in 5.0 mi ESE 17.3 mph - 0.00 in   Unknown
2:55 AM 19.4 °F 4.5 °F 19.4 °F 100% 30.22 in 5.0 mi ESE 17.3 mph - 0.00 in   Unknown
3:15 AM 19.4 °F 4.1 °F 19.4 °F 100% 30.20 in 4.0 mi ESE 18.4 mph - 0.00 in   Overcast
3:35 AM 19.4 °F 3.2 °F 19.4 °F 100% 30.20 in 4.0 mi SE 20.7 mph - 0.00 in   Overcast
3:55 AM 19.4 °F 3.2 °F 19.4 °F 100% 30.19 in 4.0 mi SE 20.7 mph - 0.00 in   Unknown
4:15 AM 19.4 °F 2.5 °F 19.4 °F 100% 30.19 in 3.0 mi SE 23.0 mph - 0.00 in   Unknown
4:35 AM 19.4 °F 2.5 °F 19.4 °F 100% 30.18 in 2.0 mi SE 23.0 mph 28.8 mph 0.00 in   Overcast
4:55 AM 19.4 °F 2.5 °F 19.4 °F 100% 30.17 in 1.5 mi SE 23.0 mph 29.9 mph 0.00 in   Unknown
5:15 AM 19.4 °F 1.4 °F 19.4 °F 100% 30.17 in 1.2 mi SE 26.5 mph - 0.00 in   Unknown
5:35 AM 19.4 °F 1.4 °F 19.4 °F 100% 30.15 in 1.0 mi ESE 26.5 mph - 0.00 in   Unknown
5:55 AM 19.4 °F 1.8 °F 19.4 °F 100% 30.16 in 1.2 mi SE 25.3 mph - 0.00 in   Unknown
6:15 AM 19.4 °F 2.8 °F 19.4 °F 100% 30.16 in 2.0 mi SE 21.9 mph - 0.00 in   Overcast
6:35 AM 19.4 °F 3.2 °F 19.4 °F 100% 30.17 in 2.5 mi SE 20.7 mph 28.8 mph 0.00 in   Unknown
6:55 AM 19.4 °F 2.8 °F 19.4 °F 100% 30.17 in 1.0 mi SE 21.9 mph - 0.00 in   Unknown
7:15 AM 19.4 °F 2.5 °F 19.4 °F 100% 30.17 in 1.0 mi ESE 23.0 mph 27.6 mph 0.00 in   Overcast
7:35 AM 19.4 °F 2.8 °F 19.4 °F 100% 30.17 in 1.8 mi ESE 21.9 mph - 0.00 in   Unknown
8:15 AM 19.4 °F 1.8 °F 19.4 °F 100% 30.18 in 1.8 mi ESE 25.3 mph - 0.00 in   Unknown
8:35 AM 19.4 °F 3.2 °F 19.4 °F 100% 30.18 in 1.8 mi ESE 20.7 mph - 0.00 in   Unknown
9:15 AM 21.2 °F 4.9 °F 19.4 °F 93% 30.18 in 1.8 mi SE 23.0 mph 28.8 mph 0.00 in   Overcast
9:35 AM 21.2 °F 5.6 °F 19.4 °F 93% 30.18 in 2.0 mi SE 20.7 mph - 0.00 in   Unknown
9:55 AM 21.2 °F 5.2 °F 19.4 °F 93% 30.17 in 2.0 mi SE 21.9 mph - 0.00 in   Unknown
10:15 AM 21.2 °F 4.5 °F 19.4 °F 93% 30.17 in 1.5 mi SE 24.2 mph - 0.00 in   Unknown
10:35 AM 21.2 °F 5.6 °F 19.4 °F 93% 30.17 in 2.5 mi SE 20.7 mph 26.5 mph 0.00 in   Overcast
10:55 AM 21.2 °F 5.2 °F 21.2 °F 100% 30.17 in 2.0 mi SE 21.9 mph - 0.00 in   Unknown
11:15 AM 23.0 °F 7.6 °F 21.2 °F 93% 30.16 in 1.5 mi SE 21.9 mph - 0.00 in   Unknown
11:35 AM 23.0 °F 8.0 °F 21.2 °F 93% 30.16 in 2.5 mi SE 20.7 mph 24.2 mph 0.00 in   Mostly Cloudy
11:55 AM 23.0 °F 8.3 °F 21.2 °F 93% 30.15 in 3.0 mi ESE 19.6 mph - 0.00 in   Mostly Cloudy
3:15 PM 26.6 °F 13.4 °F 23.0 °F 86% 30.13 in 8.0 mi SE 18.4 mph - 0.00 in   Unknown
3:35 PM 26.6 °F 13.1 °F 23.0 °F 86% 30.13 in 8.0 mi SE 19.6 mph - 0.00 in   Mostly Cloudy
3:55 PM 26.6 °F 13.8 °F 23.0 °F 86% 30.14 in 9.0 mi SE 17.3 mph - 0.00 in   Unknown
4:15 PM 28.4 °F 16.6 °F 24.8 °F 86% 30.14 in 7.0 mi SE 16.1 mph - 0.00 in   Unknown
4:35 PM 26.6 °F 13.4 °F 24.8 °F 93% 30.14 in 7.0 mi SE 18.4 mph - 0.00 in   Mostly Cloudy
4:55 PM 26.6 °F 14.7 °F 24.8 °F 93% 30.14 in 7.0 mi SE 15.0 mph - 0.00 in   Overcast
5:15 PM 26.6 °F 14.3 °F 24.8 °F 93% 30.13 in 6.0 mi ESE 16.1 mph - 0.00 in   Unknown
5:35 PM 26.6 °F 14.7 °F 24.8 °F 93% 30.13 in 6.0 mi ESE 15.0 mph - 0.00 in   Overcast
5:55 PM 26.6 °F 15.2 °F 24.8 °F 93% 30.14 in 5.0 mi SE 13.8 mph - 0.00 in   Overcast
7:35 PM 26.6 °F 15.7 °F 24.8 °F 93% 30.16 in 7.0 mi SE 12.7 mph - 0.00 in   Overcast
7:55 PM 26.6 °F 15.2 °F 23.0 °F 86% 30.16 in 8.0 mi SE 13.8 mph - 0.00 in   Overcast
8:15 PM 26.6 °F 15.7 °F 23.0 °F 86% 30.16 in 8.0 mi SE 12.7 mph - 0.00 in   Overcast
8:35 PM 24.8 °F 13.4 °F 23.0 °F 93% 30.16 in 9.0 mi ESE 12.7 mph - 0.00 in   Overcast
8:55 PM 24.8 °F 14.0 °F 23.0 °F 93% 30.16 in 8.0 mi ESE 11.5 mph - 0.00 in   Overcast
9:15 PM 24.8 °F 16.1 °F 23.0 °F 93% 30.17 in 8.0 mi ESE 8.1 mph - 0.00 in   Overcast
9:35 PM 26.6 °F 17.5 °F 23.0 °F 86% 30.18 in 8.0 mi SE 9.2 mph - 0.00 in   Overcast
9:55 PM 24.8 °F 15.3 °F 23.0 °F 93% 30.18 in 9.0 mi ESE 9.2 mph - 0.00 in   Overcast
10:15 PM 24.8 °F 14.6 °F 23.0 °F 93% 30.18 in 8.0 mi SE 10.4 mph - 0.00 in   Overcast
10:35 PM 24.8 °F 14.6 °F 23.0 °F 93% 30.18 in 9.0 mi SE 10.4 mph - 0.00 in   Overcast
10:55 PM 24.8 °F 15.3 °F 23.0 °F 93% 30.18 in 9.0 mi SE 9.2 mph - 0.00 in   Overcast
11:15 PM 24.8 °F 14.6 °F 23.0 °F 93% 30.18 in 9.0 mi SE 10.4 mph - 0.00 in   Overcast
11:35 PM 24.8 °F 14.6 °F 23.0 °F 93% 30.18 in 8.0 mi SE 10.4 mph - 0.00 in   Overcast
11:55 PM 24.8 °F 15.3 °F 23.0 °F 93% 30.18 in 8.0 mi SE 9.2 mph - 0.00 in   Overcast